Time,TemperatureF,DewpointF,PressureIn,WindDirection,WindDirectionDegrees,WindSpeedMPH,WindSpeedGustMPH,Humidity,HourlyPrecipIn,Conditions,Clouds,dailyrainin,SoftwareType,DateUTC
2014-04-19 00:01:00,29.0,27.5,30.24,ESE,111,0.0,0.0,94,0.00,,,0.00,Wunderground v.1.15,2014-04-19 04:01:00,
2014-04-19 00:02:00,29.0,27.5,30.24,ESE,111,0.0,0.0,94,0.00,,,0.00,Wunderground v.1.15,2014-04-19 04:02:00,
2014-04-19 00:03:00,29.0,27.5,30.24,ESE,111,0.0,0.0,94,0.00,,,0.00,Wunderground v.1.15,2014-04-19 04:03:00,
2014-04-19 00:07:00,28.9,27.4,30.24,ESE,111,0.0,0.0,94,0.00,,,0.00,Wunderground v.1.15,2014-04-19 04:07:00,
2014-04-19 00:10:00,28.7,27.2,30.25,ESE,111,0.0,0.0,94,0.00,,,0.00,Wunderground v.1.15,2014-04-19 04:10:00,
2014-04-19 00:16:00,28.6,27.1,30.24,ESE,111,0.0,0.0,94,0.00,,,0.00,Wunderground v.1.15,2014-04-19 04:16:00,
2014-04-19 00:22:00,28.6,27.4,30.24,ESE,111,0.0,0.0,95,0.00,,,0.00,Wunderground v.1.15,2014-04-19 04:22:00,
2014-04-19 00:27:00,28.4,26.9,30.24,ESE,111,0.0,0.0,94,0.00,,,0.00,Wunderground v.1.15,2014-04-19 04:27:00,
2014-04-19 00:33:00,28.1,26.6,30.24,ESE,111,0.0,0.0,94,0.00,,,0.00,Wunderground v.1.15,2014-04-19 04:33:00,
2014-04-19 00:38:00,28.0,26.8,30.23,ESE,111,1.0,2.0,95,0.00,,,0.00,Wunderground v.1.15,2014-04-19 04:38:00,
2014-04-19 00:44:00,28.1,26.9,30.23,ESE,111,1.0,2.0,95,0.00,,,0.00,Wunderground v.1.15,2014-04-19 04:44:00,
2014-04-19 00:50:00,28.0,26.8,30.22,ESE,111,2.0,2.0,95,0.00,,,0.00,Wunderground v.1.15,2014-04-19 04:50:00,
2014-04-19 00:55:00,28.1,26.9,30.22,ESE,111,0.0,2.0,95,0.00,,,0.00,Wunderground v.1.15,2014-04-19 04:55:00,
2014-04-19 01:01:00,28.1,26.9,30.22,ESE,111,0.0,1.0,95,0.00,,,0.00,Wunderground v.1.15,2014-04-19 05:01:00,
2014-04-19 01:07:00,28.1,26.9,30.21,ESE,111,0.0,2.0,95,0.00,,,0.00,Wunderground v.1.15,2014-04-19 05:07:00,
2014-04-19 01:12:00,28.1,26.9,30.21,ESE,111,0.0,2.0,95,0.00,,,0.00,Wunderground v.1.15,2014-04-19 05:12:00,
2014-04-19 01:18:00,28.0,26.8,30.20,ESE,111,0.0,2.0,95,0.00,,,0.00,Wunderground v.1.15,2014-04-19 05:18:00,
2014-04-19 01:23:00,27.8,26.6,30.20,ESE,111,0.0,1.0,95,0.00,,,0.00,Wunderground v.1.15,2014-04-19 05:23:00,
2014-04-19 01:29:00,27.3,25.8,30.20,ESE,111,0.0,1.0,94,0.00,,,0.00,Wunderground v.1.15,2014-04-19 05:29:00,
2014-04-19 01:35:00,27.4,26.2,30.20,ESE,111,1.0,2.0,95,0.00,,,0.00,Wunderground v.1.15,2014-04-19 05:35:00,
2014-04-19 01:40:00,27.3,26.1,30.19,ESE,111,0.0,1.0,95,0.00,,,0.00,Wunderground v.1.15,2014-04-19 05:40:00,
2014-04-19 01:46:00,27.3,26.1,30.19,ESE,111,0.0,1.0,95,0.00,,,0.00,Wunderground v.1.15,2014-04-19 05:46:00,
2014-04-19 01:47:00,27.3,26.1,30.19,ESE,111,0.0,1.0,95,0.00,,,0.00,Wunderground v.1.15,2014-04-19 05:47:00,
2014-04-19 01:53:00,27.4,26.4,30.19,ESE,111,0.0,0.0,96,0.00,,,0.00,Wunderground v.1.15,2014-04-19 05:53:00,
2014-04-19 01:58:00,27.3,26.3,30.19,ESE,111,0.0,0.0,96,0.00,,,0.00,Wunderground v.1.15,2014-04-19 05:58:00,
2014-04-19 02:03:00,27.3,26.1,30.18,ESE,111,0.0,1.0,95,0.00,,,0.00,Wunderground v.1.15,2014-04-19 06:03:00,
2014-04-19 02:08:00,27.3,26.3,30.18,ESE,111,0.0,1.0,96,0.00,,,0.00,Wunderground v.1.15,2014-04-19 06:08:00,
2014-04-19 02:13:00,27.3,26.3,30.18,ESE,111,0.0,0.0,96,0.00,,,0.00,Wunderground v.1.15,2014-04-19 06:13:00,
2014-04-19 02:18:00,27.7,26.7,30.18,ESE,111,0.0,1.0,96,0.00,,,0.00,Wunderground v.1.15,2014-04-19 06:18:00,
2014-04-19 02:23:00,27.9,26.9,30.17,ESE,111,0.0,0.0,96,0.00,,,0.00,Wunderground v.1.15,2014-04-19 06:23:00,
2014-04-19 02:28:00,28.0,27.0,30.17,ESE,111,0.0,0.0,96,0.00,,,0.00,Wunderground v.1.15,2014-04-19 06:28:00,
2014-04-19 02:33:00,28.0,27.0,30.17,ESE,111,0.0,0.0,96,0.00,,,0.00,Wunderground v.1.15,2014-04-19 06:33:00,
2014-04-19 02:35:00,28.1,27.1,30.17,ESE,111,0.0,0.0,96,0.00,,,0.00,Wunderground v.1.15,2014-04-19 06:35:00,
2014-04-19 02:40:00,28.2,27.2,30.17,ESE,111,0.0,0.0,96,0.00,,,0.00,Wunderground v.1.15,2014-04-19 06:40:00,
2014-04-19 02:45:00,28.2,27.2,30.17,ESE,111,0.0,0.0,96,0.00,,,0.00,Wunderground v.1.15,2014-04-19 06:45:00,
2014-04-19 02:50:00,28.2,27.2,30.17,ESE,111,0.0,0.0,96,0.00,,,0.00,Wunderground v.1.15,2014-04-19 06:50:00,
2014-04-19 02:55:00,28.3,27.3,30.16,ESE,111,0.0,0.0,96,0.00,,,0.00,Wunderground v.1.15,2014-04-19 06:55:00,
2014-04-19 03:00:00,28.3,27.3,30.16,ESE,111,0.0,0.0,96,0.00,,,0.00,Wunderground v.1.15,2014-04-19 07:00:00,
2014-04-19 03:05:00,28.1,26.9,30.16,ESE,111,0.0,0.0,95,0.00,,,0.00,Wunderground v.1.15,2014-04-19 07:05:00,
2014-04-19 03:10:00,28.1,27.1,30.15,ESE,111,0.0,0.0,96,0.00,,,0.00,Wunderground v.1.15,2014-04-19 07:10:00,
2014-04-19 03:15:00,28.2,27.2,30.16,ESE,111,0.0,1.0,96,0.00,,,0.00,Wunderground v.1.15,2014-04-19 07:15:00,
2014-04-19 03:20:00,28.3,27.3,30.16,ESE,111,0.0,0.0,96,0.00,,,0.00,Wunderground v.1.15,2014-04-19 07:20:00,
2014-04-19 03:25:00,28.3,27.3,30.16,ESE,111,0.0,0.0,96,0.00,,,0.00,Wunderground v.1.15,2014-04-19 07:25:00,
2014-04-19 03:30:00,28.4,27.4,30.16,ESE,111,0.0,0.0,96,0.00,,,0.00,Wunderground v.1.15,2014-04-19 07:30:00,
2014-04-19 03:35:00,28.5,27.5,30.16,ESE,111,0.0,0.0,96,0.00,,,0.00,Wunderground v.1.15,2014-04-19 07:35:00,
2014-04-19 03:40:00,28.6,27.6,30.15,ESE,111,0.0,0.0,96,0.00,,,0.00,Wunderground v.1.15,2014-04-19 07:40:00,
2014-04-19 03:45:00,28.6,27.6,30.15,ESE,111,0.0,1.0,96,0.00,,,0.00,Wunderground v.1.15,2014-04-19 07:45:00,
2014-04-19 03:50:00,28.6,27.6,30.15,ESE,111,0.0,0.0,96,0.00,,,0.00,Wunderground v.1.15,2014-04-19 07:50:00,
2014-04-19 03:55:00,28.8,27.8,30.15,ESE,111,0.0,0.0,96,0.00,,,0.00,Wunderground v.1.15,2014-04-19 07:55:00,
2014-04-19 04:00:00,28.9,27.9,30.15,ESE,111,1.0,1.0,96,0.00,,,0.00,Wunderground v.1.15,2014-04-19 08:00:00,
2014-04-19 04:05:00,29.0,28.0,30.16,ESE,111,0.0,1.0,96,0.00,,,0.00,Wunderground v.1.15,2014-04-19 08:05:00,
2014-04-19 04:10:00,29.0,28.0,30.15,ESE,111,0.0,0.0,96,0.00,,,0.00,Wunderground v.1.15,2014-04-19 08:10:00,
2014-04-19 04:15:00,29.1,28.1,30.15,ESE,111,0.0,0.0,96,0.00,,,0.00,Wunderground v.1.15,2014-04-19 08:15:00,
2014-04-19 04:20:00,29.3,28.3,30.15,ESE,111,0.0,1.0,96,0.00,,,0.00,Wunderground v.1.15,2014-04-19 08:20:00,
2014-04-19 04:25:00,29.4,28.4,30.14,ESE,111,0.0,1.0,96,0.00,,,0.00,Wunderground v.1.15,2014-04-19 08:25:00,
2014-04-19 04:30:00,29.5,28.5,30.14,ESE,111,0.0,0.0,96,0.00,,,0.00,Wunderground v.1.15,2014-04-19 08:30:00,
2014-04-19 04:35:00,29.6,28.6,30.14,ESE,111,0.0,0.0,96,0.00,,,0.00,Wunderground v.1.15,2014-04-19 08:35:00,
2014-04-19 04:40:00,29.7,28.7,30.14,ESE,111,0.0,0.0,96,0.00,,,0.00,Wunderground v.1.15,2014-04-19 08:40:00,
2014-04-19 04:45:00,29.9,28.9,30.14,ESE,111,1.0,4.0,96,0.00,,,0.00,Wunderground v.1.15,2014-04-19 08:45:00,
2014-04-19 04:50:00,30.1,29.1,30.14,ESE,111,0.0,1.0,96,0.00,,,0.00,Wunderground v.1.15,2014-04-19 08:50:00,
2014-04-19 04:55:00,30.1,29.1,30.14,ESE,111,0.0,1.0,96,0.00,,,0.00,Wunderground v.1.15,2014-04-19 08:55:00,
2014-04-19 05:00:00,30.2,29.2,30.13,ESE,111,0.0,0.0,96,0.00,,,0.00,Wunderground v.1.15,2014-04-19 09:00:00,
2014-04-19 05:05:00,30.3,29.0,30.14,SE,135,2.0,2.0,95,0.00,,,0.00,Wunderground v.1.15,2014-04-19 09:05:00,
2014-04-19 05:10:00,30.4,29.1,30.14,SE,135,0.0,0.0,95,0.00,,,0.00,Wunderground v.1.15,2014-04-19 09:10:00,
2014-04-19 05:15:00,30.5,29.2,30.14,SE,135,0.0,1.0,95,0.00,,,0.00,Wunderground v.1.15,2014-04-19 09:15:00,
2014-04-19 05:21:00,30.5,29.2,30.13,SE,134,2.0,4.0,95,0.00,,,0.00,Wunderground v.1.15,2014-04-19 09:21:00,
2014-04-19 05:26:00,30.5,29.2,30.13,SE,134,1.0,4.0,95,0.00,,,0.00,Wunderground v.1.15,2014-04-19 09:26:00,
2014-04-19 05:31:00,30.5,29.2,30.14,SE,134,1.0,2.0,95,0.00,,,0.00,Wunderground v.1.15,2014-04-19 09:31:00,
2014-04-19 05:36:00,30.6,29.3,30.14,SE,134,0.0,2.0,95,0.00,,,0.00,Wunderground v.1.15,2014-04-19 09:36:00,
2014-04-19 05:41:00,30.6,29.3,30.14,SE,134,0.0,1.0,95,0.00,,,0.00,Wunderground v.1.15,2014-04-19 09:41:00,
2014-04-19 05:46:00,30.7,29.4,30.15,SE,134,0.0,1.0,95,0.00,,,0.00,Wunderground v.1.15,2014-04-19 09:46:00,
2014-04-19 05:51:00,30.7,29.4,30.15,SE,134,0.0,2.0,95,0.00,,,0.00,Wunderground v.1.15,2014-04-19 09:51:00,
2014-04-19 05:56:00,30.7,29.4,30.14,SE,134,0.0,2.0,95,0.00,,,0.00,Wunderground v.1.15,2014-04-19 09:56:00,
2014-04-19 06:01:00,30.6,29.3,30.14,SE,134,0.0,0.0,95,0.00,,,0.00,Wunderground v.1.15,2014-04-19 10:01:00,
2014-04-19 06:06:00,30.4,29.1,30.14,SE,134,0.0,0.0,95,0.00,,,0.00,Wunderground v.1.15,2014-04-19 10:06:00,
2014-04-19 06:11:00,30.4,29.1,30.14,SE,134,0.0,0.0,95,0.00,,,0.00,Wunderground v.1.15,2014-04-19 10:11:00,
2014-04-19 06:16:00,30.4,29.1,30.14,SE,134,1.0,1.0,95,0.00,,,0.00,Wunderground v.1.15,2014-04-19 10:16:00,
2014-04-19 06:21:00,30.5,29.2,30.14,SE,134,0.0,0.0,95,0.00,,,0.00,Wunderground v.1.15,2014-04-19 10:21:00,
2014-04-19 06:26:00,30.5,29.2,30.14,SE,134,1.0,4.0,95,0.00,,,0.00,Wunderground v.1.15,2014-04-19 10:26:00,
2014-04-19 06:31:00,30.6,29.3,30.14,SE,144,0.0,1.0,95,0.00,,,0.00,Wunderground v.1.15,2014-04-19 10:31:00,
2014-04-19 06:36:00,30.6,29.3,30.14,SE,144,0.0,1.0,95,0.00,,,0.00,Wunderground v.1.15,2014-04-19 10:36:00,
2014-04-19 06:41:00,30.7,29.7,30.14,SE,144,0.0,0.0,96,0.00,,,0.00,Wunderground v.1.15,2014-04-19 10:41:00,
2014-04-19 06:46:00,30.9,29.9,30.14,SE,144,2.0,2.0,96,0.00,,,0.00,Wunderground v.1.15,2014-04-19 10:46:00,
2014-04-19 06:51:00,31.1,29.8,30.14,SE,144,0.0,1.0,95,0.00,,,0.00,Wunderground v.1.15,2014-04-19 10:51:00,
2014-04-19 06:56:00,31.2,29.9,30.14,SE,144,1.0,2.0,95,0.00,,,0.00,Wunderground v.1.15,2014-04-19 10:56:00,
2014-04-19 07:01:00,31.2,29.9,30.15,SE,144,0.0,1.0,95,0.00,,,0.00,Wunderground v.1.15,2014-04-19 11:01:00,
2014-04-19 07:06:00,31.1,29.8,30.14,SE,144,0.0,1.0,95,0.00,,,0.00,Wunderground v.1.15,2014-04-19 11:06:00,
2014-04-19 07:11:00,31.2,29.9,30.14,SE,144,2.0,2.0,95,0.00,,,0.00,Wunderground v.1.15,2014-04-19 11:11:00,
2014-04-19 07:16:00,31.5,30.5,30.14,SE,144,0.0,2.0,96,0.00,,,0.00,Wunderground v.1.15,2014-04-19 11:16:00,
2014-04-19 07:21:00,31.7,30.4,30.15,SE,144,4.0,4.0,95,0.00,,,0.00,Wunderground v.1.15,2014-04-19 11:21:00,
2014-04-19 07:26:00,32.1,30.8,30.15,SE,144,1.0,4.0,95,0.00,,,0.00,Wunderground v.1.15,2014-04-19 11:26:00,
2014-04-19 07:31:00,32.5,31.2,30.15,SE,144,0.0,2.0,95,0.00,,,0.00,Wunderground v.1.15,2014-04-19 11:31:00,
2014-04-19 07:36:00,32.8,31.3,30.15,SE,144,0.0,4.0,94,0.00,,,0.00,Wunderground v.1.15,2014-04-19 11:36:00,
2014-04-19 07:41:00,33.0,31.5,30.15,SE,144,1.0,2.0,94,0.00,,,0.00,Wunderground v.1.15,2014-04-19 11:41:00,
2014-04-19 07:46:00,33.2,31.7,30.15,SE,144,1.0,4.0,94,0.00,,,0.00,Wunderground v.1.15,2014-04-19 11:46:00,
2014-04-19 07:51:00,33.4,31.6,30.15,SE,144,0.0,2.0,93,0.00,,,0.00,Wunderground v.1.15,2014-04-19 11:51:00,
2014-04-19 07:56:00,34.1,32.6,30.16,SE,144,0.0,2.0,94,0.00,,,0.00,Wunderground v.1.15,2014-04-19 11:56:00,
2014-04-19 08:01:00,35.0,33.2,30.15,SE,144,2.0,2.0,93,0.00,,,0.00,Wunderground v.1.15,2014-04-19 12:01:00,
2014-04-19 08:06:00,36.2,34.1,30.15,NW,312,5.0,5.0,92,0.00,,,0.00,Wunderground v.1.15,2014-04-19 12:06:00,
2014-04-19 08:11:00,37.4,34.7,30.15,NW,321,5.0,6.0,90,0.00,,,0.00,Wunderground v.1.15,2014-04-19 12:11:00,
2014-04-19 08:16:00,38.5,34.7,30.16,NW,310,7.0,9.0,86,0.00,,,0.00,Wunderground v.1.15,2014-04-19 12:16:00,
2014-04-19 08:21:00,38.7,34.0,30.15,NW,313,7.0,8.0,83,0.00,,,0.00,Wunderground v.1.15,2014-04-19 12:21:00,
2014-04-19 08:26:00,38.7,33.7,30.16,NW,324,6.0,9.0,82,0.00,,,0.00,Wunderground v.1.15,2014-04-19 12:26:00,
2014-04-19 08:32:00,39.0,34.3,30.15,NW,324,1.0,4.0,83,0.00,,,0.00,Wunderground v.1.15,2014-04-19 12:32:00,
2014-04-19 08:37:00,39.3,33.6,30.15,NNW,327,5.0,5.0,80,0.00,,,0.00,Wunderground v.1.15,2014-04-19 12:37:00,
2014-04-19 08:42:00,39.0,33.7,30.15,North,355,4.0,4.0,81,0.00,,,0.00,Wunderground v.1.15,2014-04-19 12:42:00,
2014-04-19 08:47:00,40.1,34.7,30.16,NE,40,3.0,5.0,81,0.00,,,0.00,Wunderground v.1.15,2014-04-19 12:47:00,
2014-04-19 08:52:00,40.9,35.2,30.16,NNE,15,2.0,5.0,80,0.00,,,0.00,Wunderground v.1.15,2014-04-19 12:52:00,
2014-04-19 08:57:00,41.7,35.3,30.16,North,5,6.0,6.0,78,0.00,,,0.00,Wunderground v.1.15,2014-04-19 12:57:00,
2014-04-19 09:02:00,42.7,36.0,30.15,NNW,327,4.0,7.0,77,0.00,,,0.00,Wunderground v.1.15,2014-04-19 13:02:00,
2014-04-19 09:07:00,43.0,34.9,30.16,NE,36,0.0,7.0,73,0.00,,,0.00,Wunderground v.1.15,2014-04-19 13:07:00,
2014-04-19 09:12:00,42.6,34.9,30.15,NE,35,0.0,3.0,74,0.00,,,0.00,Wunderground v.1.15,2014-04-19 13:12:00,
2014-04-19 09:17:00,43.6,35.9,30.15,NW,306,4.0,6.0,74,0.00,,,0.00,Wunderground v.1.15,2014-04-19 13:17:00,
2014-04-19 09:22:00,43.7,36.0,30.15,NNW,343,5.0,5.0,74,0.00,,,0.00,Wunderground v.1.15,2014-04-19 13:22:00,
2014-04-19 09:27:00,44.4,35.6,30.14,West,261,3.0,7.0,71,0.00,,,0.00,Wunderground v.1.15,2014-04-19 13:27:00,
2014-04-19 09:32:00,45.5,37.7,30.15,West,265,3.0,6.0,74,0.00,,,0.00,Wunderground v.1.15,2014-04-19 13:32:00,
2014-04-19 09:37:00,46.4,36.8,30.15,West,271,5.0,6.0,69,0.00,,,0.00,Wunderground v.1.15,2014-04-19 13:37:00,
2014-04-19 09:42:00,47.1,36.7,30.15,WNW,282,2.0,7.0,67,0.00,,,0.00,Wunderground v.1.15,2014-04-19 13:42:00,
2014-04-19 09:47:00,47.8,37.7,30.15,NW,323,7.0,9.0,68,0.00,,,0.00,Wunderground v.1.15,2014-04-19 13:47:00,
2014-04-19 09:52:00,47.8,36.6,30.15,NNW,335,5.0,8.0,65,0.00,,,0.00,Wunderground v.1.15,2014-04-19 13:52:00,
2014-04-19 09:57:00,48.1,37.3,30.15,NW,304,6.0,9.0,66,0.00,,,0.00,Wunderground v.1.15,2014-04-19 13:57:00,
2014-04-19 10:02:00,49.0,38.1,30.15,WNW,290,8.0,8.0,66,0.00,,,0.00,Wunderground v.1.15,2014-04-19 14:02:00,
2014-04-19 10:07:00,49.0,36.5,30.16,NNW,334,9.0,14.0,62,0.00,,,0.00,Wunderground v.1.15,2014-04-19 14:07:00,
2014-04-19 10:12:00,49.6,36.7,30.15,West,281,5.0,6.0,61,0.00,,,0.00,Wunderground v.1.15,2014-04-19 14:12:00,
2014-04-19 10:17:00,50.8,37.8,30.15,NW,319,1.0,6.0,61,0.00,,,0.00,Wunderground v.1.15,2014-04-19 14:17:00,
2014-04-19 10:22:00,51.6,39.0,30.15,NE,41,3.0,7.0,62,0.00,,,0.00,Wunderground v.1.15,2014-04-19 14:22:00,
2014-04-19 10:27:00,52.4,38.9,30.16,ENE,58,4.0,9.0,60,0.00,,,0.00,Wunderground v.1.15,2014-04-19 14:27:00,
2014-04-19 10:32:00,52.7,38.3,30.16,NW,317,8.0,8.0,58,0.00,,,0.00,Wunderground v.1.15,2014-04-19 14:32:00,
2014-04-19 10:37:00,53.3,38.0,30.16,NNE,24,6.0,12.0,56,0.00,,,0.00,Wunderground v.1.15,2014-04-19 14:37:00,
2014-04-19 10:42:00,53.0,38.6,30.16,ENE,69,2.0,11.0,58,0.00,,,0.00,Wunderground v.1.15,2014-04-19 14:42:00,
2014-04-19 10:47:00,53.4,38.5,30.16,NNW,336,11.0,13.0,57,0.00,,,0.00,Wunderground v.1.15,2014-04-19 14:47:00,
2014-04-19 10:52:00,52.9,38.1,30.16,NE,36,11.0,18.0,57,0.00,,,0.00,Wunderground v.1.15,2014-04-19 14:52:00,
2014-04-19 10:57:00,52.8,36.6,30.16,NW,313,7.0,18.0,54,0.00,,,0.00,Wunderground v.1.15,2014-04-19 14:57:00,
2014-04-19 11:02:00,53.0,36.3,30.17,North,351,10.0,12.0,53,0.00,,,0.00,Wunderground v.1.15,2014-04-19 15:02:00,
2014-04-19 11:07:00,53.8,36.6,30.16,NW,319,12.0,14.0,52,0.00,,,0.00,Wunderground v.1.15,2014-04-19 15:07:00,
2014-04-19 11:12:00,54.0,36.8,30.17,NW,319,6.0,10.0,52,0.00,,,0.00,Wunderground v.1.15,2014-04-19 15:12:00,
2014-04-19 11:17:00,53.7,37.0,30.17,West,275,12.0,19.0,53,0.00,,,0.00,Wunderground v.1.15,2014-04-19 15:17:00,
2014-04-19 11:22:00,53.9,36.7,30.17,WNW,302,5.0,11.0,52,0.00,,,0.00,Wunderground v.1.15,2014-04-19 15:22:00,
2014-04-19 11:27:00,54.7,36.4,30.17,North,355,10.0,15.0,50,0.00,,,0.00,Wunderground v.1.15,2014-04-19 15:27:00,
2014-04-19 11:32:00,54.4,36.6,30.17,North,351,11.0,18.0,51,0.00,,,0.00,Wunderground v.1.15,2014-04-19 15:32:00,
2014-04-19 11:37:00,53.1,35.4,30.17,NW,304,6.0,20.0,51,0.00,,,0.00,Wunderground v.1.15,2014-04-19 15:37:00,
2014-04-19 11:42:00,53.7,36.5,30.17,NNW,340,7.0,14.0,52,0.00,,,0.00,Wunderground v.1.15,2014-04-19 15:42:00,
2014-04-19 11:47:00,53.6,35.9,30.17,NW,325,8.0,22.0,51,0.00,,,0.00,Wunderground v.1.15,2014-04-19 15:47:00,
2014-04-19 11:52:00,54.4,35.6,30.17,NNW,332,8.0,14.0,49,0.00,,,0.00,Wunderground v.1.15,2014-04-19 15:52:00,
2014-04-19 11:57:00,53.4,35.2,30.17,WNW,286,9.0,17.0,50,0.00,,,0.00,Wunderground v.1.15,2014-04-19 15:57:00,
2014-04-19 12:02:00,54.2,36.5,30.17,NE,55,8.0,19.0,51,0.00,,,0.00,Wunderground v.1.15,2014-04-19 16:02:00,
2014-04-19 12:08:00,54.9,36.1,30.17,NNW,333,11.0,19.0,49,0.00,,,0.00,Wunderground v.1.15,2014-04-19 16:08:00,
2014-04-19 12:13:00,54.1,34.8,30.17,WNW,302,12.0,17.0,48,0.00,,,0.00,Wunderground v.1.15,2014-04-19 16:13:00,
2014-04-19 12:18:00,54.7,35.9,30.17,NW,311,9.0,18.0,49,0.00,,,0.00,Wunderground v.1.15,2014-04-19 16:18:00,
2014-04-19 12:23:00,54.9,36.1,30.17,NNE,28,11.0,15.0,49,0.00,,,0.00,Wunderground v.1.15,2014-04-19 16:23:00,
2014-04-19 12:28:00,54.8,34.9,30.17,West,277,8.0,16.0,47,0.00,,,0.00,Wunderground v.1.15,2014-04-19 16:28:00,
2014-04-19 12:33:00,53.9,34.1,30.17,North,5,3.0,17.0,47,0.00,,,0.00,Wunderground v.1.15,2014-04-19 16:33:00,
2014-04-19 12:38:00,54.0,33.7,30.17,North,9,8.0,18.0,46,0.00,,,0.00,Wunderground v.1.15,2014-04-19 16:38:00,
2014-04-19 12:43:00,53.2,34.5,30.17,NNW,347,6.0,13.0,49,0.00,,,0.00,Wunderground v.1.15,2014-04-19 16:43:00,
2014-04-19 12:48:00,53.3,35.1,30.18,NNW,346,5.0,13.0,50,0.00,,,0.00,Wunderground v.1.15,2014-04-19 16:48:00,
2014-04-19 12:53:00,53.8,34.6,30.17,NNE,28,6.0,19.0,48,0.00,,,0.00,Wunderground v.1.15,2014-04-19 16:53:00,
2014-04-19 12:58:00,54.1,34.8,30.17,NNW,331,8.0,21.0,48,0.00,,,0.00,Wunderground v.1.15,2014-04-19 16:58:00,
2014-04-19 13:03:00,54.7,34.3,30.17,NNW,331,10.0,17.0,46,0.00,,,0.00,Wunderground v.1.15,2014-04-19 17:03:00,
2014-04-19 13:08:00,55.6,34.6,30.17,North,355,13.0,19.0,45,0.00,,,0.00,Wunderground v.1.15,2014-04-19 17:08:00,
2014-04-19 13:13:00,55.9,36.5,30.17,NNW,347,11.0,12.0,48,0.00,,,0.00,Wunderground v.1.15,2014-04-19 17:13:00,
2014-04-19 13:18:00,57.3,36.1,30.17,NW,310,9.0,12.0,45,0.00,,,0.00,Wunderground v.1.15,2014-04-19 17:18:00,
2014-04-19 13:23:00,56.8,36.2,30.17,NNW,328,5.0,8.0,46,0.00,,,0.00,Wunderground v.1.15,2014-04-19 17:23:00,
2014-04-19 13:28:00,56.5,36.0,30.17,NNE,33,13.0,15.0,46,0.00,,,0.00,Wunderground v.1.15,2014-04-19 17:28:00,
2014-04-19 13:33:00,57.3,37.8,30.17,NW,324,5.0,10.0,48,0.00,,,0.00,Wunderground v.1.15,2014-04-19 17:33:00,
2014-04-19 13:38:00,56.7,35.0,30.17,NW,311,6.0,18.0,44,0.00,,,0.00,Wunderground v.1.15,2014-04-19 17:38:00,
2014-04-19 13:43:00,55.7,34.7,30.17,NW,305,17.0,17.0,45,0.00,,,0.00,Wunderground v.1.15,2014-04-19 17:43:00,
2014-04-19 13:48:00,56.1,35.0,30.17,NW,322,9.0,18.0,45,0.00,,,0.00,Wunderground v.1.15,2014-04-19 17:48:00,
2014-04-19 13:53:00,55.0,34.0,30.17,NE,42,9.0,16.0,45,0.00,,,0.00,Wunderground v.1.15,2014-04-19 17:53:00,
2014-04-19 13:58:00,54.0,33.1,30.18,North,360,6.0,17.0,45,0.00,,,0.00,Wunderground v.1.15,2014-04-19 17:58:00,
2014-04-19 14:03:00,53.9,34.6,30.18,NNW,327,10.0,17.0,48,0.00,,,0.00,Wunderground v.1.15,2014-04-19 18:03:00,
2014-04-19 14:08:00,54.3,33.4,30.18,NNW,333,5.0,17.0,45,0.00,,,0.00,Wunderground v.1.15,2014-04-19 18:08:00,
2014-04-19 14:13:00,54.4,34.0,30.18,North,10,6.0,20.0,46,0.00,,,0.00,Wunderground v.1.15,2014-04-19 18:13:00,
2014-04-19 14:18:00,56.2,35.1,30.17,NNE,32,7.0,20.0,45,0.00,,,0.00,Wunderground v.1.15,2014-04-19 18:18:00,
2014-04-19 14:23:00,55.3,33.7,30.17,North,11,11.0,19.0,44,0.00,,,0.00,Wunderground v.1.15,2014-04-19 18:23:00,
2014-04-19 14:28:00,55.3,35.4,30.18,NNW,344,5.0,19.0,47,0.00,,,0.00,Wunderground v.1.15,2014-04-19 18:28:00,
2014-04-19 14:33:00,54.5,35.7,30.18,NNW,342,12.0,22.0,49,0.00,,,0.00,Wunderground v.1.15,2014-04-19 18:33:00,
2014-04-19 14:39:00,55.4,34.9,30.18,NW,321,9.0,25.0,46,0.00,,,0.00,Wunderground v.1.15,2014-04-19 18:39:00,
2014-04-19 14:44:00,55.7,35.8,30.18,NW,319,18.0,20.0,47,0.00,,,0.00,Wunderground v.1.15,2014-04-19 18:44:00,
2014-04-19 14:49:00,54.5,34.7,30.18,NW,313,11.0,24.0,47,0.00,,,0.00,Wunderground v.1.15,2014-04-19 18:49:00,